Time;durP1;ratioP1;P1;durP2;ratioP2;P2;SDS_P1;SDS_P2;PMS_P1;PMS_P2;Temp;Humidity;BMP_temperature;BMP_pressure;BME280_temperature;BME280_humidity;BME280_pressure;Samples;Min_cycle;Max_cycle;Signal;HPM_P1;HPM_P2
2022/07/02 00:00:15;;;;;;;1124.32;999.90;;;;;;;19.56;57.51;101699.31;694317;28;22407;-66
2022/07/02 00:00:37;;;;;;;1124.97;999.90;;;;;;;19.56;57.65;101704.78;691035;28;136101;-67
2022/07/02 00:00:58;;;;;;;1117.07;999.90;;;;;;;19.52;57.35;101701.66;693138;28;69424;-67
2022/07/02 00:01:20;;;;;;;1112.47;999.90;;;;;;;19.50;57.74;101701.03;694092;28;23318;-66
2022/07/02 00:01:46;;;;;;;1124.90;999.90;;;;;;;19.52;57.77;101709.88;692029;28;23399;-67
2022/07/02 00:02:08;;;;;;;1129.13;999.90;;;;;;;19.51;57.88;101708.19;688354;28;137513;-67
2022/07/02 00:02:32;;;;;;;1128.28;999.90;;;;;;;19.52;57.59;101704.38;691979;28;22385;-67
2022/07/02 00:02:54;;;;;;;1128.15;999.90;;;;;;;19.54;57.62;101701.44;688561;28;113546;-67
2022/07/02 00:03:17;;;;;;;1127.10;999.90;;;;;;;19.54;57.52;101712.41;690999;28;23393;-66
2022/07/02 00:03:39;;;;;;;1126.50;999.90;;;;;;;19.52;57.55;101703.56;689490;28;71208;-67
2022/07/02 00:04:03;;;;;;;1129.93;999.90;;;;;;;19.52;57.60;101706.28;690371;28;44431;-67
2022/07/02 00:04:26;;;;;;;1114.82;999.90;;;;;;;19.49;57.57;101703.97;688338;28;115026;-67
2022/07/02 00:04:53;;;;;;;1114.78;999.90;;;;;;;19.48;57.62;101708.59;690302;28;67532;-67
2022/07/02 00:05:16;;;;;;;1127.80;999.90;;;;;;;19.47;57.53;101712.41;688311;28;136241;-67
2022/07/02 00:05:41;;;;;;;1127.30;999.90;;;;;;;19.46;57.66;101710.72;690305;28;69241;-67
2022/07/02 00:06:05;;;;;;;1114.10;999.90;;;;;;;19.45;57.82;101715.38;688609;28;138057;-67
2022/07/02 00:06:30;;;;;;;1117.15;999.90;;;;;;;19.41;57.82;101716.00;690368;28;37916;-68
2022/07/02 00:06:52;;;;;;;1128.80;999.90;;;;;;;19.39;57.79;101713.47;689618;28;92764;-67
2022/07/02 00:07:14;;;;;;;1125.05;999.90;;;;;;;19.33;57.76;101710.75;691612;28;22401;-67
2022/07/02 00:07:37;;;;;;;1127.75;999.90;;;;;;;19.37;57.87;101712.00;691126;28;46318;-67
2022/07/02 00:08:00;;;;;;;1128.45;999.90;;;;;;;19.37;57.82;101720.22;690651;28;69377;-67
2022/07/02 00:08:24;;;;;;;1128.50;999.90;;;;;;;19.35;57.96;101714.94;690391;28;68329;-67
2022/07/02 00:08:45;;;;;;;1126.68;999.90;;;;;;;19.34;57.84;101713.28;689787;28;90328;-67
2022/07/02 00:09:07;;;;;;;1128.20;999.90;;;;;;;19.33;57.87;101717.06;691628;28;21548;-67
2022/07/02 00:09:29;;;;;;;1132.20;999.90;;;;;;;19.31;58.05;101712.84;690851;28;46261;-67
2022/07/02 00:09:51;;;;;;;1126.97;999.90;;;;;;;19.31;57.86;101710.97;692309;28;46061;-67
2022/07/02 00:10:13;;;;;;;1109.22;999.90;;;;;;;19.28;58.10;101711.38;688487;28;40000;-67
2022/07/02 00:10:35;;;;;;;1112.93;999.90;;;;;;;19.28;58.09;101719.59;689100;28;44400;-67
2022/07/02 00:10:58;;;;;;;1128.75;999.90;;;;;;;19.27;58.10;101717.91;692603;28;46318;-66
2022/07/02 00:11:20;;;;;;;1130.95;999.90;;;;;;;19.22;58.16;101707.59;690202;28;69433;-66
2022/07/02 00:11:41;;;;;;;1128.40;999.90;;;;;;;19.26;58.35;101710.72;694451;28;21488;-66
2022/07/02 00:12:03;;;;;;;1127.82;999.90;;;;;;;19.25;58.40;101711.81;693565;28;45197;-66
2022/07/02 00:12:27;;;;;;;1126.60;999.90;;;;;;;19.24;58.15;101710.09;693610;28;46500;-66
2022/07/02 00:12:48;;;;;;;1127.45;999.90;;;;;;;19.22;58.27;101709.50;692451;28;92527;-66
2022/07/02 00:13:10;;;;;;;1126.93;999.90;;;;;;;19.23;58.42;101716.63;694781;28;22248;-66
2022/07/02 00:13:31;;;;;;;1128.47;999.90;;;;;;;19.19;58.12;101704.44;694730;28;23400;-66
2022/07/02 00:13:54;;;;;;;1125.65;999.90;;;;;;;19.23;58.10;101709.28;694310;28;46155;-67
2022/07/02 00:14:16;;;;;;;1113.70;999.90;;;;;;;19.22;58.32;101715.78;693796;28;45239;-66
2022/07/02 00:14:37;;;;;;;1105.80;999.90;;;;;;;19.21;58.47;101716.84;694000;28;44368;-66
2022/07/02 00:15:00;;;;;;;1104.05;999.90;;;;;;;19.20;58.36;101723.38;695217;28;21560;-66
2022/07/02 00:15:22;;;;;;;1112.43;999.90;;;;;;;19.19;58.25;101713.47;695004;28;24672;-67
2022/07/02 00:15:44;;;;;;;1110.43;999.90;;;;;;;19.18;58.37;101713.69;693130;28;69220;-67
2022/07/02 00:16:09;;;;;;;1119.47;999.90;;;;;;;19.18;58.39;101710.94;695082;28;22390;-66
2022/07/02 00:16:30;;;;;;;1122.78;999.90;;;;;;;19.15;58.32;101714.94;688905;28;114455;-66
2022/07/02 00:16:53;;;;;;;1129.32;999.90;;;;;;;19.15;58.32;101719.59;690764;28;44126;-66
2022/07/02 00:17:14;;;;;;;1129.70;999.90;;;;;;;19.14;58.50;101721.50;690834;28;46867;-67
2022/07/02 00:17:37;;;;;;;1130.40;999.90;;;;;;;19.14;58.49;101716.00;691744;28;21516;-67
2022/07/02 00:17:58;;;;;;;1118.30;999.90;;;;;;;19.13;58.53;101710.75;690054;28;66843;-66
2022/07/02 00:18:21;;;;;;;1108.68;999.90;;;;;;;19.16;58.49;101715.81;691330;28;22607;-66
2022/07/02 00:18:42;;;;;;;1126.53;999.90;;;;;;;19.15;58.52;101714.94;690288;28;62497;-66
2022/07/02 00:19:04;;;;;;;1125.28;999.90;;;;;;;19.14;58.67;101713.28;691627;28;22237;-66
2022/07/02 00:19:25;;;;;;;1127.97;999.90;;;;;;;19.13;58.62;101713.50;690973;28;46091;-66
2022/07/02 00:19:47;;;;;;;1127.45;999.90;;;;;;;19.14;58.59;101715.16;691489;28;21566;-66
2022/07/02 00:20:11;;;;;;;1123.00;999.90;;;;;;;19.12;58.52;101715.34;689916;28;36487;-67
2022/07/02 00:20:33;;;;;;;1126.10;999.90;;;;;;;19.09;58.68;101713.91;690689;28;45059;-67
2022/07/02 00:20:54;;;;;;;1128.45;999.90;;;;;;;19.05;58.48;101709.06;691616;28;22433;-67
2022/07/02 00:21:16;;;;;;;1126.07;999.90;;;;;;;19.08;58.47;101708.63;691211;28;22396;-67
2022/07/02 00:21:39;;;;;;;1124.35;999.90;;;;;;;19.06;58.59;101708.00;691903;28;66308;-67
2022/07/02 00:22:03;;;;;;;1124.80;999.90;;;;;;;19.03;58.51;101713.91;692086;28;90409;-66
2022/07/02 00:22:28;;;;;;;1123.95;999.90;;;;;;;19.02;58.75;101712.22;692136;28;91278;-66
2022/07/02 00:22:50;;;;;;;1124.60;999.90;;;;;;;18.98;58.89;101706.31;691767;28;115034;-66
2022/07/02 00:23:13;;;;;;;1113.63;999.90;;;;;;;19.01;58.77;101711.38;694228;28;44368;-66
2022/07/02 00:23:35;;;;;;;1098.03;999.90;;;;;;;19.02;58.85;101720.44;692547;28;67297;-67
2022/07/02 00:23:57;;;;;;;1112.80;999.90;;;;;;;19.02;58.91;101714.94;694121;28;46402;-66
2022/07/02 00:24:18;;;;;;;1117.70;999.90;;;;;;;18.99;58.75;101718.94;693361;28;44530;-66
2022/07/02 00:24:40;;;;;;;1114.55;999.90;;;;;;;19.01;58.86;101719.59;694701;28;23481;-66
2022/07/02 00:25:02;;;;;;;1095.47;999.90;;;;;;;19.01;58.81;101721.47;693300;28;46441;-66
2022/07/02 00:25:25;;;;;;;1102.30;999.90;;;;;;;19.00;58.69;101717.06;695634;28;879;-66
2022/07/02 00:25:52;;;;;;;1119.70;999.90;;;;;;;18.98;58.96;101719.16;692737;28;67374;-66
2022/07/02 00:26:17;;;;;;;1113.82;999.90;;;;;;;18.93;58.63;101716.19;690172;28;137565;-66
2022/07/02 00:26:48;;;;;;;1117.30;999.90;;;;;;;18.94;58.75;101717.91;690629;28;79962;-67
2022/07/02 00:27:11;;;;;;;1106.18;999.90;;;;;;;18.93;58.71;101722.50;688651;28;162128;-67
2022/07/02 00:27:32;;;;;;;1100.60;999.90;;;;;;;18.91;58.86;101719.97;691693;28;69422;-67
2022/07/02 00:27:54;;;;;;;1116.80;999.90;;;;;;;18.90;59.00;101714.72;693238;28;46176;-66
2022/07/02 00:28:17;;;;;;;1124.18;999.90;;;;;;;18.89;59.20;101722.09;693035;28;44375;-66
2022/07/02 00:28:43;;;;;;;1121.00;999.90;;;;;;;18.90;59.02;101725.66;694197;28;45046;-66
2022/07/02 00:29:13;;;;;;;1122.30;999.90;;;;;;;18.89;59.16;101721.25;691812;28;137603;-66
2022/07/02 00:29:37;;;;;;;1120.35;999.90;;;;;;;18.88;58.94;101722.31;691021;28;60161;-66
2022/07/02 00:30:01;;;;;;;1117.07;999.90;;;;;;;18.84;59.16;101718.25;689445;28;92548;-66
2022/07/02 00:30:23;;;;;;;1105.03;999.90;;;;;;;18.81;59.20;101710.47;690303;28;115205;-66
2022/07/02 00:30:46;;;;;;;1100.15;999.90;;;;;;;18.82;59.12;101715.72;693368;28;46324;-66
2022/07/02 00:31:08;;;;;;;1118.28;999.90;;;;;;;18.84;59.17;101713.69;691567;28;69424;-66
2022/07/02 00:31:29;;;;;;;1119.07;999.90;;;;;;;18.84;59.16;101729.19;694572;28;22395;-66
2022/07/02 00:31:52;;;;;;;1123.03;999.90;;;;;;;18.83;59.35;101724.81;695886;28;46390;-66
2022/07/02 00:32:13;;;;;;;1122.57;999.90;;;;;;;18.81;59.39;101722.28;695652;28;45221;-66
2022/07/02 00:32:35;;;;;;;1120.60;999.90;;;;;;;18.81;59.23;101729.63;696878;28;22428;-66
2022/07/02 00:32:56;;;;;;;1119.17;999.90;;;;;;;18.81;59.36;101726.88;694478;28;67281;-66
2022/07/02 00:33:18;;;;;;;1121.90;999.90;;;;;;;18.80;59.29;101717.84;692621;28;44349;-67
2022/07/02 00:33:41;;;;;;;1120.25;999.90;;;;;;;18.81;59.26;101724.13;694578;28;23471;-67
2022/07/02 00:34:03;;;;;;;1114.93;999.90;;;;;;;18.81;59.45;101726.88;694134;28;69836;-67
2022/07/02 00:34:25;;;;;;;1099.18;999.90;;;;;;;18.80;59.55;101725.22;693318;28;45180;-66
2022/07/02 00:34:47;;;;;;;1105.07;999.90;;;;;;;18.80;59.62;101728.78;693204;28;46586;-66
2022/07/02 00:35:10;;;;;;;1117.35;999.90;;;;;;;18.80;59.28;101733.41;693175;28;46294;-66
2022/07/02 00:35:32;;;;;;;1119.25;999.90;;;;;;;18.79;59.45;101729.81;692352;28;69401;-66
2022/07/02 00:35:54;;;;;;;1118.63;999.90;;;;;;;18.77;59.12;101723.72;693828;28;44428;-66
2022/07/02 00:36:21;;;;;;;1123.05;999.90;;;;;;;18.78;59.32;101727.28;693405;28;45206;-66
2022/07/02 00:36:44;;;;;;;1106.63;999.90;;;;;;;18.80;59.42;101730.69;688642;28;156834;-66
2022/07/02 00:37:08;;;;;;;1104.53;999.90;;;;;;;18.78;59.18;101719.09;692157;28;69439;-66
2022/07/02 00:37:30;;;;;;;1121.35;999.90;;;;;;;18.78;59.37;101732.75;690108;28;91167;-66
2022/07/02 00:37:52;;;;;;;1123.13;999.90;;;;;;;18.76;59.56;101729.41;691076;28;44013;-66
2022/07/02 00:38:15;;;;;;;1122.45;999.90;;;;;;;18.76;59.48;101735.75;690523;28;46201;-66
2022/07/02 00:38:37;;;;;;;1105.65;999.90;;;;;;;18.73;59.30;101730.69;689612;28;69085;-66
2022/07/02 00:39:00;;;;;;;1109.63;999.90;;;;;;;18.70;59.40;101729.19;690451;28;46066;-66
2022/07/02 00:39:21;;;;;;;1123.97;999.90;;;;;;;18.75;59.50;101730.47;690577;28;70459;-66
2022/07/02 00:39:43;;;;;;;1124.55;999.90;;;;;;;18.75;59.51;101728.56;693568;28;21539;-67
2022/07/02 00:40:06;;;;;;;1124.57;999.90;;;;;;;18.74;59.33;101732.34;693894;28;46245;-67
2022/07/02 00:40:29;;;;;;;1120.63;999.90;;;;;;;18.73;59.60;101731.50;692530;28;67482;-66
2022/07/02 00:40:54;;;;;;;1121.88;999.90;;;;;;;18.66;59.57;101732.53;694091;28;46306;-66
2022/07/02 00:41:16;;;;;;;1120.30;999.90;;;;;;;18.64;59.76;101713.59;690668;28;114971;-66
2022/07/02 00:41:38;;;;;;;1123.07;999.90;;;;;;;18.63;59.82;101722.84;692978;28;4605;-66
2022/07/02 00:41:59;;;;;;;1125.28;999.90;;;;;;;18.65;59.72;101728.97;692289;28;69292;-66
2022/07/02 00:42:22;;;;;;;1121.07;999.90;;;;;;;18.67;59.64;101729.59;694063;28;22369;-66
2022/07/02 00:42:44;;;;;;;1119.72;999.90;;;;;;;18.65;59.70;101734.44;693216;28;44420;-66
2022/07/02 00:43:06;;;;;;;1121.97;999.90;;;;;;;18.66;59.84;101730.66;692267;28;69503;-66
2022/07/02 00:43:27;;;;;;;1116.30;999.90;;;;;;;18.68;59.75;101724.97;692327;28;69569;-66
2022/07/02 00:43:54;;;;;;;1108.40;999.90;;;;;;;18.67;59.77;101723.31;693637;28;45257;-66
2022/07/02 00:44:18;;;;;;;1099.32;999.90;;;;;;;18.66;59.84;101719.69;689259;28;159536;-66
2022/07/02 00:44:40;;;;;;;1119.03;999.90;;;;;;;18.69;59.73;101721.19;691230;28;115358;-65
2022/07/02 00:45:02;;;;;;;1123.38;999.90;;;;;;;18.70;59.54;101722.88;694200;28;21656;-65
2022/07/02 00:45:25;;;;;;;1121.68;999.90;;;;;;;18.66;59.75;101722.44;693586;28;46320;-64
2022/07/02 00:45:46;;;;;;;1109.68;999.90;;;;;;;18.69;59.33;101721.19;692157;28;69293;-65
2022/07/02 00:46:08;;;;;;;1113.03;999.90;;;;;;;18.70;59.58;101722.88;694315;28;22374;-66
2022/07/02 00:46:29;;;;;;;1123.60;999.90;;;;;;;18.70;59.61;101725.63;692459;28;45246;-65
2022/07/02 00:46:53;;;;;;;1125.05;999.90;;;;;;;18.70;59.81;101729.19;694539;28;21557;-66
2022/07/02 00:47:15;;;;;;;1127.75;999.90;;;;;;;18.71;59.49;101724.56;690627;28;114958;-68
2022/07/02 00:47:36;;;;;;;1126.32;999.90;;;;;;;18.70;59.88;101717.41;695285;28;22389;-67
2022/07/02 00:47:58;;;;;;;1125.20;999.90;;;;;;;18.72;59.63;101718.03;693782;28;21525;-65
2022/07/02 00:48:20;;;;;;;1124.93;999.90;;;;;;;18.75;59.72;101727.75;693250;28;46289;-66
2022/07/02 00:48:43;;;;;;;1110.35;999.90;;;;;;;18.76;59.73;101718.47;693246;28;46343;-66
2022/07/02 00:49:04;;;;;;;1104.70;999.90;;;;;;;18.79;59.59;101716.13;691884;28;69436;-66
2022/07/02 00:49:26;;;;;;;1117.57;999.90;;;;;;;18.80;59.41;101717.84;693385;28;47209;-66
2022/07/02 00:49:54;;;;;;;1123.93;999.90;;;;;;;18.83;59.59;101724.81;693544;28;46428;-66
2022/07/02 00:50:15;;;;;;;1117.38;999.90;;;;;;;18.85;59.37;101730.94;690075;28;136294;-66
2022/07/02 00:50:36;;;;;;;1121.18;999.90;;;;;;;18.87;59.52;101723.34;693909;28;21529;-66
2022/07/02 00:50:57;;;;;;;1124.93;999.90;;;;;;;18.85;59.53;101717.25;694137;28;21160;-66
2022/07/02 00:51:19;;;;;;;1118.10;999.90;;;;;;;18.83;59.44;101722.91;693320;28;22448;-66
2022/07/02 00:51:41;;;;;;;1105.03;999.90;;;;;;;18.87;59.36;101721.47;693376;28;44345;-66
2022/07/02 00:52:03;;;;;;;1102.05;999.90;;;;;;;18.83;58.98;101709.22;693692;28;21320;-66
2022/07/02 00:52:25;;;;;;;1118.40;999.90;;;;;;;18.88;59.18;101720.41;692542;28;67458;-66
2022/07/02 00:52:46;;;;;;;1121.72;999.90;;;;;;;18.85;59.04;101712.59;693383;28;45220;-66
2022/07/02 00:53:08;;;;;;;1123.82;999.90;;;;;;;18.90;58.91;101720.19;694640;28;23445;-66
2022/07/02 00:53:30;;;;;;;1125.97;999.90;;;;;;;18.88;58.83;101717.66;694301;28;23471;-66
2022/07/02 00:53:52;;;;;;;1124.47;999.90;;;;;;;18.89;58.77;101721.25;692691;28;69452;-66
2022/07/02 00:54:14;;;;;;;1119.00;999.90;;;;;;;18.87;58.92;101716.00;692623;28;46310;-66
2022/07/02 00:54:35;;;;;;;1123.38;999.90;;;;;;;18.86;58.80;101719.78;693975;28;22403;-66
2022/07/02 00:54:56;;;;;;;1120.65;999.90;;;;;;;18.85;59.08;101726.28;693923;28;22536;-66
2022/07/02 00:55:17;;;;;;;1123.15;999.90;;;;;;;18.80;58.81;101717.84;693002;28;45254;-66
2022/07/02 00:55:39;;;;;;;1111.97;999.90;;;;;;;18.81;59.04;101725.00;694398;28;22421;-66
2022/07/02 00:56:01;;;;;;;1103.70;999.90;;;;;;;18.82;59.15;101725.84;692877;28;44346;-66
2022/07/02 00:56:22;;;;;;;1102.80;999.90;;;;;;;18.81;59.07;101721.41;693665;28;23379;-66
2022/07/02 00:56:43;;;;;;;1104.38;999.90;;;;;;;18.79;59.06;101723.50;694478;28;22354;-66
2022/07/02 00:57:06;;;;;;;1105.43;999.90;;;;;;;18.78;58.96;101728.16;693661;28;23556;-66
2022/07/02 00:57:28;;;;;;;1105.40;999.90;;;;;;;18.78;59.08;101730.03;691388;28;93027;-66
2022/07/02 00:57:50;;;;;;;1101.97;999.90;;;;;;;18.77;59.26;101731.09;694374;28;23492;-66
2022/07/02 00:58:11;;;;;;;1116.03;999.90;;;;;;;18.75;59.02;101725.00;694986;28;46527;-66
2022/07/02 00:58:33;;;;;;;1103.88;999.90;;;;;;;18.75;59.08;101723.09;695896;28;46387;-66
2022/07/02 00:58:56;;;;;;;1074.93;999.90;;;;;;;18.73;59.28;101726.03;696931;28;22409;-66
2022/07/02 00:59:17;;;;;;;1053.85;991.65;;;;;;;18.70;59.07;101728.34;694478;28;67483;-66
2022/07/02 00:59:39;;;;;;;1063.55;999.78;;;;;;;18.71;59.20;101732.75;696745;28;21525;-66
2022/07/02 01:00:00;;;;;;;1056.50;994.08;;;;;;;18.70;59.23;101728.34;695914;28;46289;-66
2022/07/02 01:00:22;;;;;;;1053.45;991.25;;;;;;;18.69;59.17;101732.13;693926;28;22384;-66
2022/07/02 01:00:43;;;;;;;1055.32;993.03;;;;;;;18.68;59.21;101727.69;693582;28;46406;-66
2022/07/02 01:01:05;;;;;;;1043.25;981.88;;;;;;;18.66;59.14;101725.16;694253;28;22324;-66
2022/07/02 01:01:26;;;;;;;1038.50;977.55;;;;;;;18.66;59.15;101729.81;691136;28;45024;-66
2022/07/02 01:01:47;;;;;;;1082.20;999.90;;;;;;;18.66;59.31;101727.06;693676;28;23498;-66
2022/07/02 01:02:09;;;;;;;1095.47;999.90;;;;;;;18.64;59.16;101729.19;693774;28;22045;-66
2022/07/02 01:02:31;;;;;;;1096.43;999.90;;;;;;;18.64;59.22;101720.97;693715;28;44448;-66
2022/07/02 01:02:56;;;;;;;1094.40;999.90;;;;;;;18.61;59.34;101724.97;693487;28;45062;-66
2022/07/02 01:03:18;;;;;;;1087.80;999.90;;;;;;;18.62;59.36;101726.66;690991;28;114969;-66
2022/07/02 01:03:43;;;;;;;1089.78;999.90;;;;;;;18.61;59.31;101729.59;693398;28;45282;-66
2022/07/02 01:04:05;;;;;;;1083.43;999.90;;;;;;;18.57;59.28;101723.66;690066;28;114955;-66
2022/07/02 01:04:29;;;;;;;1091.97;999.90;;;;;;;18.54;59.52;101722.22;694839;28;844;-66
2022/07/02 01:04:53;;;;;;;1084.43;999.90;;;;;;;18.54;59.72;101729.56;691785;28;92179;-66
2022/07/02 01:05:16;;;;;;;1103.30;999.90;;;;;;;18.55;59.58;101723.88;691295;28;93339;-66
2022/07/02 01:05:37;;;;;;;1123.60;999.90;;;;;;;18.55;59.54;101725.78;696126;28;44369;-66
2022/07/02 01:05:58;;;;;;;1128.72;999.90;;;;;;;18.54;59.69;101719.47;695712;28;46306;-66
2022/07/02 01:06:20;;;;;;;1128.43;999.90;;;;;;;18.55;59.82;101723.03;695925;28;24203;-66
2022/07/02 01:06:42;;;;;;;1126.45;999.90;;;;;;;18.55;59.60;101723.03;695872;28;46248;-66
2022/07/02 01:07:06;;;;;;;1121.53;999.90;;;;;;;18.53;59.79;101722.41;695302;28;45220;-66
2022/07/02 01:07:30;;;;;;;1103.93;999.90;;;;;;;18.53;59.62;101719.69;694050;28;69514;-66
2022/07/02 01:10:45;;;;;;;1130.85;999.90;;;;;;;18.51;59.59;101719.03;692727;28;124624;-66
2022/07/02 01:11:07;;;;;;;1130.05;999.90;;;;;;;18.50;59.78;101728.28;694954;28;67457;-66
2022/07/02 01:11:29;;;;;;;1129.55;999.90;;;;;;;18.50;59.84;101728.28;694634;28;46477;-66
2022/07/02 01:11:52;;;;;;;1121.15;999.90;;;;;;;18.49;59.74;101723.88;695151;28;69277;-66
2022/07/02 01:12:14;;;;;;;1109.13;999.90;;;;;;;18.45;59.89;101720.72;695686;28;46249;-66
2022/07/02 01:12:35;;;;;;;1110.85;999.90;;;;;;;18.47;59.93;101723.25;694528;28;45263;-66
2022/07/02 01:12:57;;;;;;;1129.32;999.90;;;;;;;18.45;59.64;101730.78;693927;28;44382;-66
2022/07/02 01:13:19;;;;;;;1132.35;999.90;;;;;;;18.44;59.73;101729.13;693975;28;22394;-66
2022/07/02 01:13:40;;;;;;;1130.22;999.90;;;;;;;18.43;59.49;101731.03;693176;28;45177;-66
2022/07/02 01:14:03;;;;;;;1130.22;999.90;;;;;;;18.42;59.58;101731.22;694214;28;22359;-66
2022/07/02 01:14:24;;;;;;;1129.95;999.90;;;;;;;18.42;59.67;101728.50;692201;28;69419;-66
2022/07/02 01:14:46;;;;;;;1126.80;999.90;;;;;;;18.40;59.83;101728.69;694481;28;22273;-66
2022/07/02 01:15:08;;;;;;;1128.60;999.90;;;;;;;18.39;59.94;101729.72;692063;28;69390;-66
2022/07/02 01:15:30;;;;;;;1121.87;999.90;;;;;;;18.37;60.01;101727.19;693088;28;44445;-66
2022/07/02 01:15:53;;;;;;;1113.75;999.90;;;;;;;18.37;59.98;101727.19;694145;28;45232;-66
2022/07/02 01:16:14;;;;;;;1110.45;999.90;;;;;;;18.36;60.27;101722.78;692351;28;67615;-66
2022/07/02 01:16:36;;;;;;;1112.80;999.90;;;;;;;18.34;59.99;101721.31;693107;28;22402;-66
2022/07/02 01:16:57;;;;;;;1130.82;999.90;;;;;;;18.37;59.99;101724.47;692655;28;45388;-66
2022/07/02 01:17:19;;;;;;;1131.35;999.90;;;;;;;18.37;60.08;101724.47;693599;28;23770;-66
2022/07/02 01:17:40;;;;;;;1127.88;999.90;;;;;;;18.38;60.04;101728.03;693364;28;44081;-66
2022/07/02 01:18:03;;;;;;;1128.57;999.90;;;;;;;18.38;59.95;101728.03;694023;28;23463;-66
2022/07/02 01:18:24;;;;;;;1130.00;999.90;;;;;;;18.37;60.01;101726.38;693679;28;67487;-66
2022/07/02 01:18:45;;;;;;;1127.38;999.90;;;;;;;18.36;60.07;101724.66;694236;28;23976;-66
2022/07/02 01:19:06;;;;;;;1127.07;999.90;;;;;;;18.36;59.89;101721.94;693851;28;23507;-67
2022/07/02 01:19:29;;;;;;;1125.85;999.90;;;;;;;18.36;59.92;101722.78;693797;28;22351;-66
2022/07/02 01:19:50;;;;;;;1130.20;999.90;;;;;;;18.36;59.93;101720.03;693443;28;46392;-66
2022/07/02 01:20:11;;;;;;;1130.38;999.90;;;;;;;18.36;59.88;101722.78;693376;28;46259;-66
2022/07/02 01:20:34;;;;;;;1129.38;999.90;;;;;;;18.35;60.10;101723.84;695139;28;19515;-66
2022/07/02 01:20:55;;;;;;;1129.18;999.90;;;;;;;18.33;60.18;101716.88;693818;28;46483;-66
2022/07/02 01:21:16;;;;;;;1124.57;999.90;;;;;;;18.36;60.00;101720.03;694084;28;21589;-66
2022/07/02 01:21:37;;;;;;;1113.47;999.90;;;;;;;18.36;60.02;101722.78;694027;28;46316;-67
2022/07/02 01:22:14;;;;;;;1110.88;999.90;;;;;;;18.36;59.87;101720.03;695203;28;22394;-66
2022/07/02 01:22:38;;;;;;;1103.78;999.90;;;;;;;18.37;59.89;101723.63;692469;28;137717;-67
2022/07/02 01:22:59;;;;;;;1123.03;999.90;;;;;;;18.36;60.14;101721.94;695118;28;69405;-66
2022/07/02 01:23:20;;;;;;;1129.97;999.90;;;;;;;18.34;60.01;101716.66;696769;28;21678;-66
2022/07/02 01:23:41;;;;;;;1129.45;999.90;;;;;;;18.36;59.94;101727.41;695820;28;46408;-67
2022/07/02 01:24:04;;;;;;;1128.63;999.90;;;;;;;18.35;59.83;101726.56;696243;28;23111;-66
2022/07/02 01:24:25;;;;;;;1125.60;999.90;;;;;;;18.34;59.91;101724.88;696548;28;46261;-66
2022/07/02 01:24:48;;;;;;;1125.82;999.90;;;;;;;18.33;60.11;101725.09;696299;28;46285;-66
2022/07/02 01:25:10;;;;;;;1126.30;999.90;;;;;;;18.34;59.95;101727.63;694766;28;69383;-66
2022/07/02 01:25:32;;;;;;;1113.07;999.90;;;;;;;18.34;60.15;101729.50;696755;28;21462;-66
2022/07/02 01:25:53;;;;;;;1099.40;999.90;;;;;;;18.31;60.09;101722.56;695372;28;42362;-66
2022/07/02 01:26:14;;;;;;;1110.20;999.90;;;;;;;18.34;60.30;101724.88;692859;28;46409;-66
2022/07/02 01:26:36;;;;;;;1124.93;999.90;;;;;;;18.35;60.22;101722.97;693801;28;22236;-66
2022/07/02 01:26:57;;;;;;;1129.05;999.90;;;;;;;18.38;59.85;101717.09;693763;28;22485;-66
2022/07/02 01:27:24;;;;;;;1126.45;999.90;;;;;;;18.42;59.91;101728.50;694018;28;22384;-66
2022/07/02 01:27:45;;;;;;;1124.70;999.90;;;;;;;18.34;59.95;101721.31;689344;28;160263;-66
2022/07/02 01:28:07;;;;;;;1104.93;999.90;;;;;;;18.37;60.00;101721.72;692509;28;46428;-66
2022/07/02 01:28:28;;;;;;;1104.70;999.90;;;;;;;18.39;59.67;101717.97;693775;28;21623;-66
2022/07/02 01:28:50;;;;;;;1122.00;999.90;;;;;;;18.41;59.77;101719.41;694264;28;22397;-66
2022/07/02 01:29:11;;;;;;;1124.65;999.90;;;;;;;18.43;59.93;101722.81;693323;28;45343;-66
2022/07/02 01:29:32;;;;;;;1129.55;999.90;;;;;;;18.43;59.54;101722.81;694384;28;22378;-66
2022/07/02 01:29:54;;;;;;;1085.22;999.90;;;;;;;18.46;59.80;101722.38;694126;28;23482;-66
2022/07/02 01:30:15;;;;;;;1068.50;999.90;;;;;;;18.47;59.85;101718.59;693613;28;44399;-66
2022/07/02 01:30:37;;;;;;;1122.68;999.90;;;;;;;18.48;59.64;101727.63;693045;28;46380;-66
2022/07/02 01:30:58;;;;;;;1113.07;999.90;;;;;;;18.47;59.42;101724.06;692707;28;46285;-66
2022/07/02 01:31:19;;;;;;;1103.20;999.90;;;;;;;18.47;59.63;101720.50;692717;28;23484;-66
2022/07/02 01:31:40;;;;;;;1112.65;999.90;;;;;;;18.47;59.61;101717.78;693482;28;23487;-66
2022/07/02 01:32:02;;;;;;;1124.68;999.90;;;;;;;18.48;59.61;101722.16;693924;28;22498;-66
2022/07/02 01:32:24;;;;;;;1126.00;999.90;;;;;;;18.45;59.70;101723.44;692920;28;44414;-67
2022/07/02 01:32:45;;;;;;;1120.85;999.90;;;;;;;18.46;59.86;101722.38;692344;28;45287;-67
2022/07/02 01:33:06;;;;;;;1103.55;999.90;;;;;;;18.49;59.55;101721.97;693875;28;21538;-67
2022/07/02 01:33:28;;;;;;;1106.63;999.90;;;;;;;18.50;59.35;101722.81;693901;28;22364;-67
2022/07/02 01:33:50;;;;;;;1115.22;999.90;;;;;;;18.48;59.68;101722.16;693303;28;45233;-67
2022/07/02 01:34:11;;;;;;;1121.20;999.90;;;;;;;18.51;59.52;101727.22;693330;28;46502;-66
2022/07/02 01:34:34;;;;;;;1128.53;999.90;;;;;;;18.55;59.50;101723.88;693656;28;22404;-66
2022/07/02 01:35:02;;;;;;;1122.45;999.90;;;;;;;18.57;59.15;101725.56;692611;28;67155;-66
2022/07/02 01:35:24;;;;;;;1120.55;999.90;;;;;;;18.58;59.17;101725.38;691421;28;109881;-67
2022/07/02 01:35:45;;;;;;;1115.40;999.90;;;;;;;18.59;59.22;101723.47;694123;28;22392;-66
2022/07/02 01:36:06;;;;;;;1114.65;999.90;;;;;;;18.60;59.10;101725.16;694257;28;22508;-66
2022/07/02 01:36:28;;;;;;;1115.60;999.90;;;;;;;18.60;59.02;101720.53;692875;28;45211;-67
2022/07/02 01:36:50;;;;;;;1110.45;999.90;;;;;;;18.59;59.00;101727.06;693841;28;21478;-66
2022/07/02 01:37:14;;;;;;;1099.47;999.90;;;;;;;18.59;59.08;101729.81;691860;28;69246;-67
2022/07/02 01:37:37;;;;;;;1090.65;999.90;;;;;;;18.54;58.77;101719.47;691445;28;91648;-66
2022/07/02 01:37:59;;;;;;;1090.38;999.90;;;;;;;18.54;58.84;101719.47;693041;28;45366;-66
2022/07/02 01:38:20;;;;;;;1094.47;999.90;;;;;;;18.55;58.87;101723.88;692142;28;69371;-66
2022/07/02 01:38:42;;;;;;;1096.97;999.90;;;;;;;18.54;59.12;101726.81;693865;28;22424;-67
2022/07/02 01:39:03;;;;;;;1090.53;999.90;;;;;;;18.52;58.98;101720.72;693853;28;22223;-66
2022/07/02 01:39:24;;;;;;;1104.57;999.90;;;;;;;18.50;59.17;101722.81;694656;28;22413;-66
2022/07/02 01:39:46;;;;;;;1118.13;999.90;;;;;;;18.47;59.17;101721.34;694372;28;22754;-66
2022/07/02 01:40:09;;;;;;;1116.93;999.90;;;;;;;18.46;59.21;101725.09;692279;28;68378;-66
2022/07/02 01:40:30;;;;;;;1114.10;999.90;;;;;;;18.41;59.24;101722.16;693813;28;47642;-66
2022/07/02 01:40:51;;;;;;;1115.25;999.90;;;;;;;18.41;59.21;101722.16;694440;28;21580;-66
2022/07/02 01:41:53;;;;;;;1104.90;999.90;;;;;;;18.37;59.62;101723.63;688905;28;157415;-66
2022/07/02 01:42:15;;;;;;;1115.28;999.90;;;;;;;18.33;59.37;101714.97;692564;28;44360;-66
2022/07/02 01:42:36;;;;;;;1113.93;999.90;;;;;;;18.33;59.26;101722.34;692984;28;44146;-67
2022/07/02 01:42:57;;;;;;;1114.32;999.90;;;;;;;18.28;59.63;101722.97;694127;28;23702;-67